Smith Valley, Nevada Weather observations

Data are for 10 minute period ending at time listed.
 Day   Time   Solar   Ave.   Ave.  Ave.  Vector  Max.   Baro.   Total    
  of    of     Rad.   Air    Rel.  Wind   Wind   Wind  Press.  Precip.   
Year   Day            Temp.  Hum.  Speed  Dir.   Gust                    
2026   (PST)  Kw/m2    F      %     mph   deg.    mph    mb.     in.     
-------------------------------------------------------------------------
 128    0:00   0.00   50.6    58    1.6    82     2.9   855.3    0.00 
 128    0:10   0.00   51.6    52    2.2   164     3.8   855.3    0.00 
 128    0:20   0.00   50.1    56    3.9   310     6.4   855.3    0.00 
 128    0:30   0.00   47.8    61    1.2    13     4.3   855.4    0.00 
 128    0:40   0.00   47.0    63    2.3   358     4.1   855.3    0.00 
 128    0:50   0.00   45.4    67    1.7   234     5.5   855.3    0.00 
 128    1:00   0.00   44.4    70    1.6   290     4.3   855.2    0.00 
 128    1:10   0.00   44.1    71    2.1    39     6.1   855.2    0.00 
 128    1:20   0.00   42.3    75    0.7   197     5.0   855.2    0.00 
 128    1:30   0.00   41.4    77    0.9   206     2.4   855.2    0.00 
 128    1:40   0.00   42.2    76    0.7   324     1.9   855.2    0.00 
 128    1:50   0.00   41.5    78    1.4   276     7.0   855.3    0.00 
 128    2:00   0.00   41.5    77    0.9   114     3.4   855.3    0.00 
 128    2:10   0.00   40.9    79    2.4   112     6.8   855.4    0.00 
 128    2:20   0.00   42.6    73    3.8   104     4.5   855.3    0.00 
 128    2:30   0.00   45.5    65    2.8   140     5.7   855.3    0.00 
 128    2:40   0.00   41.4    78    1.3   238     3.7   855.4    0.00 
 128    2:50   0.00   39.5    80    1.3   237     3.3   855.5    0.00 
 128    3:00   0.00   38.1    82    0.7    58     3.7   855.5    0.00 
 128    3:10   0.00   39.8    80    1.8    67     3.6   855.5    0.00 
 128    3:20   0.00   40.0    79    1.4   210     3.9   855.5    0.00 
 128    3:30   0.00   38.1    84    1.0   144     3.0   855.4    0.00 
 128    3:40   0.00   38.3    81    2.6   210     5.7   855.5    0.00 
 128    3:50   0.00   36.9    84    2.0   200     4.3   855.7    0.00 
 128    4:00   0.00   37.0    84    1.8   197     3.6   855.7    0.00 
 128    4:10   0.00   36.3    86    1.6   139     4.0   855.7    0.00 
 128    4:20   0.00   36.2    88    1.5   128     4.0   855.8    0.00 
 128    4:30   0.00   36.3    87    2.3   161     7.1   855.8    0.00 
 128    4:40   0.00   37.1    84    1.4   102     3.0   855.8    0.00 
 128    4:50   0.00   36.2    85    1.5    80     3.4   855.9    0.00 
 128    5:00   0.01   36.8    83    1.1   113     2.5   855.9    0.00 
 128    5:10   0.04   36.9    81    2.3   144     4.5   856.0    0.00 
 128    5:20   0.07   36.1    86    2.2   240     5.5   856.1    0.00 
 128    5:30   0.10   36.6    86    1.8   202     5.9   856.2    0.00 
 128    5:40   0.14   40.0    78    3.9    84     8.0   856.2    0.00 
 128    5:50   0.17   40.8    76    2.2    68     5.2   856.3    0.00 
 128    6:00   0.20   42.4    79    0.6   319     2.3   856.4    0.00 
 128    6:10   0.24   45.5    68    1.5   328     2.8   856.5    0.00 
 128    6:20   0.27   48.5    58    0.7   336     2.3   856.6    0.00 
 128    6:30   0.31   50.1    52    0.9   338     1.9   856.6    0.00 
 128    6:40   0.34   52.2    48    1.2    28     2.7   856.7    0.00 
 128    6:50   0.38   52.6    46    1.7    50     3.3   856.7    0.00 
 128    7:00   0.42   53.1    46    1.4    23     3.2   856.7    0.00 
 128    7:10   0.45   54.2    47    1.6   359     3.3   856.6    0.00 
 128    7:20   0.49   55.0    46    2.6    57     4.5   856.5    0.00 
 128    7:30   0.53   56.1    43    2.6    71     4.5   856.5    0.00 
 128    7:40   0.57   57.6    41    1.2    56     3.6   856.4    0.00 
 128    7:50   0.60   59.5    38    1.0     0     2.9   856.5    0.00 
 128    8:00   0.64   60.2    35    2.9   314     5.3   856.4    0.00 
 128    8:10   0.68   60.1    36    3.9   327     6.0   856.3    0.00 
 128    8:20   0.71   61.1    37    3.2   328     5.7   856.2    0.00 
 128    8:30   0.75   62.3    34    3.5   340     5.4   856.0    0.00 
 128    8:40   0.78   63.6    29    2.9    15     5.1   856.0    0.00 
 128    8:50   0.81   64.8    27    2.3   354     6.1   856.1    0.00 
 128    9:00   0.85   65.8    23    2.6    28     5.7   856.0    0.00 
 128    9:10   0.88   67.7    21    1.7    66     4.9   856.0    0.00 
 128    9:20   0.91   68.6    20    1.9   103     4.1   856.0    0.00 
 128    9:30   0.94   69.3    20    2.1    92     7.3   856.0    0.00 
 128    9:40   0.97   69.7    19    2.9    69     6.6   855.9    0.00 
 128    9:50   0.99   70.2    19    2.8    67     5.7   855.9    0.00 
 128   10:00   1.02   71.8    19    1.6   148     5.7   855.9    0.00 
 128   10:10   1.04   71.5    21    2.5   303     7.5   855.9    0.00 
 128   10:20   1.06   72.5    16    2.9    77     6.9   855.9    0.00 
 128   10:30   1.08   73.5    17    3.9    60     7.6   855.9    0.00 
 128   10:40   1.10   74.2    15    2.9    93     6.5   855.8    0.00 
 128   10:50   1.11   75.1    15    2.4    88     6.0   855.7    0.00 
 128   11:00   1.13   74.6    13    4.4    23     8.8   855.6    0.00 
 128   11:10   1.14   75.3    12    3.8    49     8.4   855.5    0.00 
 128   11:20   1.15   75.5    17    3.4   321     8.6   855.4    0.00 
 128   11:30   1.16   75.4    14    3.5    33     9.0   855.3    0.00 
 128   11:40   1.12   76.3    12    2.7    73     7.4   855.2    0.00 
 128   11:50   1.12   76.2    14    3.6   332    12.0   855.1    0.00 
 128   12:00   0.89   76.1    12    1.9   272     5.0   855.0    0.00 
 128   12:10   0.87   75.6    14    3.6   234     6.0   854.9    0.00 
 128   12:20   1.09   76.3    11    3.0   136     7.7   854.8    0.00 
 128   12:30   1.27   78.6    12    1.8   142     5.3   854.7    0.00 
 128   12:40   1.26   79.0    15    8.3   281    15.8   854.6    0.00 
 128   12:50   1.19   77.8    15    9.9   294    15.2   854.6    0.00 
 128   13:00   1.20   77.9    13   10.8   312    15.6   854.6    0.00 
 128   13:10   1.15   77.7    13   10.7   310    16.3   854.5    0.00 
 128   13:20   1.11   77.7    15   11.3   301    15.7   854.5    0.00 
 128   13:30   1.09   77.2    15   10.2   303    16.2   854.4    0.00 
 128   13:40   1.05   77.6    14   10.9   305    19.2   854.3    0.00 
 128   13:50   1.04   77.7    15    8.6   299    15.4   854.2    0.00 
 128   14:00   1.02   77.9    14    8.8   315    15.7   854.2    0.00 
 128   14:10   0.98   77.5    16   10.5   302    18.0   854.1    0.00 
 128   14:20   0.95   76.8    16    8.6   317    16.7   853.8    0.00 
 128   14:30   0.92   77.1    15   10.6   330    19.7   853.5    0.00 
 128   14:40   0.89   77.6    16    9.4   304    14.8   853.2    0.00 
 128   14:50   0.86   77.7    14   13.1   330    19.1   853.0    0.00 
 128   15:00   0.83   77.8    16   12.0   317    17.0   852.9    0.00 
 128   15:10   0.80   78.2    15   11.3   310    16.7   852.9    0.00 
 128   15:20   0.78   78.6    15   12.9   305    18.9   852.9    0.00 
 128   15:30   0.75   78.4    15   12.8   301    18.6   853.1    0.00 
 128   15:40   0.71   78.2    15   11.8   309    18.2   853.3    0.00 
 128   15:50   0.68   78.0    15   12.3   303    17.5   853.4    0.00 
 128   16:00   0.64   78.3    15   11.2   321    16.7   853.3    0.00 
 128   16:10   0.60   78.0    16   11.8   310    18.9   853.4    0.00 
 128   16:20   0.56   77.8    16   11.6   306    16.2   853.4    0.00 
 128   16:30   0.53   77.5    16   10.9   314    17.0   853.4    0.00 
 128   16:40   0.49   77.6    17   10.5   306    16.9   853.4    0.00 
 128   16:50   0.45   77.4    17   11.0   302    15.7   853.4    0.00 
 128   17:00   0.41   76.9    17   10.4   304    15.3   853.4    0.00 
 128   17:10   0.38   76.9    17   10.1   310    14.2   853.4    0.00 
 128   17:20   0.34   76.4    17    9.7   300    13.7   853.3    0.00 
 128   17:30   0.30   76.0    18    8.1   300    12.5   853.3    0.00 
 128   17:40   0.27   75.8    16    8.9   307    11.8   853.3    0.00 
 128   17:50   0.23   75.2    18    7.0   301    10.5   853.3    0.00 
 128   18:00   0.19   74.7    18    5.7   309     9.2   853.3    0.00 
 128   18:10   0.16   74.4    18    5.9   311     9.2   853.3    0.00 
 128   18:20   0.11   73.5    16    5.5   315     8.7   853.4    0.00 
 128   18:30   0.02   72.4    17    3.6   326     6.4   853.5    0.00 
 128   18:40   0.02   71.3    17    2.0   293     5.5   853.4    0.00 
 128   18:50   0.01   71.9    15    2.7    14     5.7   853.4    0.00 
 128   19:00   0.01   71.2    16    1.1   135     2.8   853.4    0.00 
 128   19:10   0.00   69.9    18    1.6     9     4.0   853.3    0.00 
 128   19:20   0.00   69.8    20    2.9   276     6.1   853.3    0.00 
 128   19:30   0.00   68.2    22    7.9   270    15.1   853.3    0.00 
 128   19:40   0.00   68.5    23    6.3   262    11.0   853.5    0.00 
 128   19:50   0.00   66.2    26    6.4   262    10.4   853.6    0.00 
 128   20:00   0.00   65.7    25    7.6   267    14.1   853.7    0.00 
 128   20:10   0.00   67.7    22    8.3   265    14.6   853.8    0.00 
 128   20:20   0.00   67.9    22    7.7   268    13.7   853.8    0.00 
 128   20:30   0.00   66.7    24    5.6   268     9.7   853.9    0.00 
 128   20:40   0.00   64.6    27    1.5   106     3.5   854.1    0.00 
 128   20:50   0.00   63.4    27    1.7   140     4.5   854.1    0.00 
 128   21:00   0.00   62.0    31    3.2   185     5.4   854.2    0.00 
 128   21:10   0.00   58.5    39    3.1   205     4.8   854.3    0.00 
 128   21:20   0.00   55.5    45    3.9   212     4.6   854.4    0.00 
 128   21:30   0.00   54.1    49    2.5   216     4.1   854.5    0.00 
 128   21:40   0.00   54.1    48    3.5   218     4.7   854.7    0.00 
 128   21:50   0.00   55.2    45    4.5   224     5.8   854.7    0.00 
 128   22:00   0.00   54.9    46    3.6   208     4.6   854.7    0.00 
 128   22:10   0.00   52.9    53    3.7   187     4.8   854.8    0.00 
 128   22:20   0.00   53.0    50    3.3   168     4.7   854.8    0.00 
 128   22:30   0.00   51.9    55    3.5    84     5.2   855.0    0.00 
 128   22:40   0.00   52.5    52    4.1   113     5.1   855.0    0.00 
 128   22:50   0.00   51.1    57    4.3   127     5.0   855.0    0.00 
 128   23:00   0.00   50.4    59    2.7   158     4.3   855.0    0.00 
 128   23:10   0.00   50.6    59    4.5   127     5.8   855.0    0.00 
 128   23:20   0.00   50.1    59    3.6   131     6.1   855.0    0.00 
 128   23:30   0.00   51.2    55    4.1   119     6.2   855.0    0.00 

Return to Smith Valley graphs page.


Western Regional Climate Center,wrcc@dri.edu